sensor_id;sensor_type;location;lat;lon;timestamp;P1;durP1;ratioP1;P2;durP2;ratioP2
26774;SDS011;14362;51.902;7.626;2023-04-24T00:04:02;1.75;;;1.17;;
26774;SDS011;14362;51.902;7.626;2023-04-24T00:08:03;3.40;;;1.30;;
26774;SDS011;14362;51.902;7.626;2023-04-24T00:12:05;2.58;;;1.15;;
26774;SDS011;14362;51.902;7.626;2023-04-24T00:16:06;2.28;;;1.30;;
26774;SDS011;14362;51.902;7.626;2023-04-24T00:20:10;1.85;;;1.02;;
26774;SDS011;14362;51.902;7.626;2023-04-24T00:24:11;0.90;;;0.90;;
26774;SDS011;14362;51.902;7.626;2023-04-24T00:28:13;1.42;;;0.90;;
26774;SDS011;14362;51.902;7.626;2023-04-24T00:32:15;1.08;;;0.73;;
26774;SDS011;14362;51.902;7.626;2023-04-24T00:36:19;1.15;;;1.00;;
26774;SDS011;14362;51.902;7.626;2023-04-24T00:40:20;1.25;;;0.88;;
26774;SDS011;14362;51.902;7.626;2023-04-24T00:44:22;1.88;;;0.85;;
26774;SDS011;14362;51.902;7.626;2023-04-24T00:48:23;0.93;;;0.70;;
26774;SDS011;14362;51.902;7.626;2023-04-24T00:52:27;0.93;;;0.93;;
26774;SDS011;14362;51.902;7.626;2023-04-24T00:56:31;2.05;;;1.65;;
26774;SDS011;14362;51.902;7.626;2023-04-24T01:00:32;1.77;;;0.80;;
26774;SDS011;14362;51.902;7.626;2023-04-24T01:04:34;2.08;;;0.88;;
26774;SDS011;14362;51.902;7.626;2023-04-24T01:08:37;1.90;;;0.77;;
26774;SDS011;14362;51.902;7.626;2023-04-24T01:12:40;2.70;;;0.90;;
26774;SDS011;14362;51.902;7.626;2023-04-24T01:16:42;1.10;;;0.80;;
26774;SDS011;14362;51.902;7.626;2023-04-24T01:20:43;1.25;;;0.80;;
26774;SDS011;14362;51.902;7.626;2023-04-24T01:24:48;2.45;;;1.00;;
26774;SDS011;14362;51.902;7.626;2023-04-24T01:28:49;0.80;;;0.80;;
26774;SDS011;14362;51.902;7.626;2023-04-24T01:32:51;2.15;;;0.75;;
26774;SDS011;14362;51.902;7.626;2023-04-24T01:36:52;2.72;;;1.20;;
26774;SDS011;14362;51.902;7.626;2023-04-24T01:40:55;2.10;;;1.10;;
26774;SDS011;14362;51.902;7.626;2023-04-24T01:44:57;1.92;;;1.58;;
26774;SDS011;14362;51.902;7.626;2023-04-24T01:48:59;1.38;;;1.27;;
26774;SDS011;14362;51.902;7.626;2023-04-24T01:53:01;1.40;;;1.30;;
26774;SDS011;14362;51.902;7.626;2023-04-24T01:57:04;4.78;;;2.03;;
26774;SDS011;14362;51.902;7.626;2023-04-24T02:01:06;3.47;;;1.85;;
26774;SDS011;14362;51.902;7.626;2023-04-24T02:05:08;2.33;;;2.13;;
26774;SDS011;14362;51.902;7.626;2023-04-24T02:09:10;2.55;;;2.33;;
26774;SDS011;14362;51.902;7.626;2023-04-24T02:13:13;3.15;;;2.25;;
26774;SDS011;14362;51.902;7.626;2023-04-24T02:17:15;2.70;;;1.80;;
26774;SDS011;14362;51.902;7.626;2023-04-24T02:21:16;2.22;;;1.70;;
26774;SDS011;14362;51.902;7.626;2023-04-24T02:25:18;2.30;;;2.10;;
26774;SDS011;14362;51.902;7.626;2023-04-24T02:29:20;4.78;;;2.25;;
26774;SDS011;14362;51.902;7.626;2023-04-24T02:33:22;4.25;;;2.58;;
26774;SDS011;14362;51.902;7.626;2023-04-24T02:37:24;3.53;;;2.83;;
26774;SDS011;14362;51.902;7.626;2023-04-24T02:41:25;4.80;;;2.70;;
26774;SDS011;14362;51.902;7.626;2023-04-24T02:45:32;3.03;;;2.75;;
26774;SDS011;14362;51.902;7.626;2023-04-24T02:49:34;4.85;;;3.67;;
26774;SDS011;14362;51.902;7.626;2023-04-24T02:53:36;4.47;;;4.05;;
26774;SDS011;14362;51.902;7.626;2023-04-24T02:57:40;7.45;;;4.13;;
26774;SDS011;14362;51.902;7.626;2023-04-24T03:01:43;5.35;;;4.80;;
26774;SDS011;14362;51.902;7.626;2023-04-24T03:05:44;8.93;;;6.00;;
26774;SDS011;14362;51.902;7.626;2023-04-24T03:09:46;7.07;;;5.97;;
26774;SDS011;14362;51.902;7.626;2023-04-24T03:13:47;8.25;;;5.85;;
26774;SDS011;14362;51.902;7.626;2023-04-24T03:17:50;7.38;;;5.80;;
26774;SDS011;14362;51.902;7.626;2023-04-24T03:21:52;8.05;;;5.65;;
26774;SDS011;14362;51.902;7.626;2023-04-24T03:25:53;6.60;;;5.50;;
26774;SDS011;14362;51.902;7.626;2023-04-24T03:29:55;5.40;;;4.20;;
26774;SDS011;14362;51.902;7.626;2023-04-24T03:33:57;5.45;;;4.90;;
26774;SDS011;14362;51.902;7.626;2023-04-24T03:37:59;5.88;;;5.13;;
26774;SDS011;14362;51.902;7.626;2023-04-24T03:42:00;5.93;;;5.15;;
26774;SDS011;14362;51.902;7.626;2023-04-24T03:46:02;7.47;;;6.20;;
26774;SDS011;14362;51.902;7.626;2023-04-24T03:50:06;10.05;;;7.03;;
26774;SDS011;14362;51.902;7.626;2023-04-24T03:54:07;8.90;;;7.63;;
26774;SDS011;14362;51.902;7.626;2023-04-24T03:58:09;10.90;;;8.52;;
26774;SDS011;14362;51.902;7.626;2023-04-24T04:02:11;13.10;;;8.02;;
26774;SDS011;14362;51.902;7.626;2023-04-24T04:06:14;14.30;;;8.57;;
26774;SDS011;14362;51.902;7.626;2023-04-24T04:10:16;11.02;;;8.75;;
26774;SDS011;14362;51.902;7.626;2023-04-24T04:14:18;12.38;;;9.40;;
26774;SDS011;14362;51.902;7.626;2023-04-24T04:18:19;12.32;;;9.90;;
26774;SDS011;14362;51.902;7.626;2023-04-24T04:22:22;16.15;;;11.38;;
26774;SDS011;14362;51.902;7.626;2023-04-24T04:26:23;18.33;;;10.07;;
26774;SDS011;14362;51.902;7.626;2023-04-24T04:30:25;17.15;;;11.82;;
26774;SDS011;14362;51.902;7.626;2023-04-24T04:34:29;15.20;;;11.32;;
26774;SDS011;14362;51.902;7.626;2023-04-24T04:38:32;17.40;;;10.52;;
26774;SDS011;14362;51.902;7.626;2023-04-24T04:42:34;17.90;;;11.75;;
26774;SDS011;14362;51.902;7.626;2023-04-24T04:46:40;16.65;;;12.18;;
26774;SDS011;14362;51.902;7.626;2023-04-24T04:50:41;16.45;;;12.05;;
26774;SDS011;14362;51.902;7.626;2023-04-24T04:54:44;16.75;;;12.88;;
26774;SDS011;14362;51.902;7.626;2023-04-24T04:58:46;17.33;;;12.77;;
26774;SDS011;14362;51.902;7.626;2023-04-24T05:02:47;19.42;;;12.02;;
26774;SDS011;14362;51.902;7.626;2023-04-24T05:06:48;16.38;;;12.48;;
26774;SDS011;14362;51.902;7.626;2023-04-24T05:10:52;22.08;;;13.52;;
26774;SDS011;14362;51.902;7.626;2023-04-24T05:14:53;19.40;;;13.00;;
26774;SDS011;14362;51.902;7.626;2023-04-24T05:18:55;19.63;;;14.20;;
26774;SDS011;14362;51.902;7.626;2023-04-24T05:22:56;21.73;;;12.98;;
26774;SDS011;14362;51.902;7.626;2023-04-24T05:26:59;18.80;;;13.52;;
26774;SDS011;14362;51.902;7.626;2023-04-24T05:31:00;23.40;;;13.52;;
26774;SDS011;14362;51.902;7.626;2023-04-24T05:35:02;20.27;;;12.85;;
26774;SDS011;14362;51.902;7.626;2023-04-24T05:39:04;18.48;;;12.55;;
26774;SDS011;14362;51.902;7.626;2023-04-24T05:43:07;18.90;;;13.43;;
26774;SDS011;14362;51.902;7.626;2023-04-24T05:47:08;22.23;;;13.60;;
26774;SDS011;14362;51.902;7.626;2023-04-24T05:51:10;18.20;;;12.70;;
26774;SDS011;14362;51.902;7.626;2023-04-24T05:55:11;19.63;;;11.93;;
26774;SDS011;14362;51.902;7.626;2023-04-24T05:59:14;15.77;;;11.35;;
26774;SDS011;14362;51.902;7.626;2023-04-24T06:03:16;18.08;;;11.90;;
26774;SDS011;14362;51.902;7.626;2023-04-24T06:07:17;18.17;;;11.85;;
26774;SDS011;14362;51.902;7.626;2023-04-24T06:11:18;18.35;;;11.80;;
26774;SDS011;14362;51.902;7.626;2023-04-24T06:15:21;15.20;;;10.52;;
26774;SDS011;14362;51.902;7.626;2023-04-24T06:19:22;14.38;;;11.13;;
26774;SDS011;14362;51.902;7.626;2023-04-24T06:23:24;18.65;;;10.65;;
26774;SDS011;14362;51.902;7.626;2023-04-24T06:27:25;15.07;;;11.05;;
26774;SDS011;14362;51.902;7.626;2023-04-24T06:31:28;14.82;;;11.10;;
26774;SDS011;14362;51.902;7.626;2023-04-24T06:35:29;15.82;;;11.40;;
26774;SDS011;14362;51.902;7.626;2023-04-24T06:39:31;15.93;;;11.25;;
26774;SDS011;14362;51.902;7.626;2023-04-24T06:43:32;18.73;;;11.65;;
26774;SDS011;14362;51.902;7.626;2023-04-24T06:47:35;13.90;;;8.60;;
26774;SDS011;14362;51.902;7.626;2023-04-24T06:51:37;12.68;;;8.57;;
26774;SDS011;14362;51.902;7.626;2023-04-24T06:55:39;13.80;;;9.02;;
26774;SDS011;14362;51.902;7.626;2023-04-24T06:59:40;11.30;;;9.10;;
26774;SDS011;14362;51.902;7.626;2023-04-24T07:03:43;12.18;;;9.55;;
26774;SDS011;14362;51.902;7.626;2023-04-24T07:07:44;12.70;;;9.25;;
26774;SDS011;14362;51.902;7.626;2023-04-24T07:11:47;14.07;;;8.75;;
26774;SDS011;14362;51.902;7.626;2023-04-24T07:15:48;13.38;;;8.52;;
26774;SDS011;14362;51.902;7.626;2023-04-24T07:19:53;10.43;;;8.10;;
26774;SDS011;14362;51.902;7.626;2023-04-24T07:23:55;10.32;;;7.75;;
26774;SDS011;14362;51.902;7.626;2023-04-24T07:27:56;10.50;;;7.78;;
26774;SDS011;14362;51.902;7.626;2023-04-24T07:31:58;10.77;;;7.75;;
26774;SDS011;14362;51.902;7.626;2023-04-24T07:36:00;8.80;;;7.00;;
26774;SDS011;14362;51.902;7.626;2023-04-24T07:40:02;9.30;;;6.57;;
26774;SDS011;14362;51.902;7.626;2023-04-24T07:44:04;7.70;;;6.63;;
26774;SDS011;14362;51.902;7.626;2023-04-24T07:48:05;8.57;;;6.57;;
26774;SDS011;14362;51.902;7.626;2023-04-24T07:52:10;6.40;;;5.63;;
26774;SDS011;14362;51.902;7.626;2023-04-24T07:56:11;6.50;;;5.30;;
26774;SDS011;14362;51.902;7.626;2023-04-24T08:00:13;6.82;;;5.28;;
26774;SDS011;14362;51.902;7.626;2023-04-24T08:04:15;6.15;;;5.28;;
26774;SDS011;14362;51.902;7.626;2023-04-24T08:08:19;6.88;;;5.20;;
26774;SDS011;14362;51.902;7.626;2023-04-24T08:12:22;6.63;;;5.15;;
26774;SDS011;14362;51.902;7.626;2023-04-24T08:16:23;5.88;;;5.25;;
26774;SDS011;14362;51.902;7.626;2023-04-24T08:20:25;9.98;;;4.80;;
26774;SDS011;14362;51.902;7.626;2023-04-24T08:24:28;7.32;;;4.88;;
26774;SDS011;14362;51.902;7.626;2023-04-24T08:28:29;5.30;;;4.45;;
26774;SDS011;14362;51.902;7.626;2023-04-24T08:32:31;5.32;;;4.80;;
26774;SDS011;14362;51.902;7.626;2023-04-24T08:36:32;7.35;;;5.15;;
26774;SDS011;14362;51.902;7.626;2023-04-24T08:40:35;5.78;;;5.13;;
26774;SDS011;14362;51.902;7.626;2023-04-24T08:44:38;5.80;;;4.18;;
26774;SDS011;14362;51.902;7.626;2023-04-24T08:48:40;5.60;;;4.78;;
26774;SDS011;14362;51.902;7.626;2023-04-24T08:52:41;5.55;;;4.38;;
26774;SDS011;14362;51.902;7.626;2023-04-24T08:56:45;8.15;;;4.75;;
26774;SDS011;14362;51.902;7.626;2023-04-24T09:00:49;6.47;;;4.10;;
26774;SDS011;14362;51.902;7.626;2023-04-24T09:04:50;5.30;;;4.25;;
26774;SDS011;14362;51.902;7.626;2023-04-24T09:08:53;5.50;;;4.05;;
26774;SDS011;14362;51.902;7.626;2023-04-24T09:12:57;5.63;;;4.43;;
26774;SDS011;14362;51.902;7.626;2023-04-24T09:17:01;5.68;;;3.42;;
26774;SDS011;14362;51.902;7.626;2023-04-24T09:21:04;4.60;;;3.83;;
26774;SDS011;14362;51.902;7.626;2023-04-24T09:29:15;4.50;;;3.60;;
26774;SDS011;14362;51.902;7.626;2023-04-24T09:33:17;4.28;;;3.88;;
26774;SDS011;14362;51.902;7.626;2023-04-24T09:37:27;3.72;;;3.35;;
26774;SDS011;14362;51.902;7.626;2023-04-24T09:41:29;4.22;;;3.65;;
26774;SDS011;14362;51.902;7.626;2023-04-24T09:45:36;3.50;;;3.20;;
26774;SDS011;14362;51.902;7.626;2023-04-24T09:49:38;4.10;;;3.72;;
26774;SDS011;14362;51.902;7.626;2023-04-24T09:53:47;4.05;;;3.60;;
26774;SDS011;14362;51.902;7.626;2023-04-24T09:57:49;4.32;;;3.60;;
26774;SDS011;14362;51.902;7.626;2023-04-24T10:01:52;4.05;;;3.60;;
26774;SDS011;14362;51.902;7.626;2023-04-24T10:05:54;4.00;;;3.65;;
26774;SDS011;14362;51.902;7.626;2023-04-24T10:09:59;3.50;;;3.20;;
26774;SDS011;14362;51.902;7.626;2023-04-24T10:14:01;6.00;;;3.40;;
26774;SDS011;14362;51.902;7.626;2023-04-24T10:18:04;4.97;;;3.72;;
26774;SDS011;14362;51.902;7.626;2023-04-24T10:22:07;4.10;;;3.70;;
26774;SDS011;14362;51.902;7.626;2023-04-24T10:26:09;5.25;;;3.65;;
26774;SDS011;14362;51.902;7.626;2023-04-24T10:30:12;4.53;;;4.10;;
26774;SDS011;14362;51.902;7.626;2023-04-24T10:34:16;3.80;;;3.50;;
26774;SDS011;14362;51.902;7.626;2023-04-24T10:38:21;5.38;;;3.60;;
26774;SDS011;14362;51.902;7.626;2023-04-24T10:42:26;3.58;;;3.10;;
26774;SDS011;14362;51.902;7.626;2023-04-24T10:46:29;6.72;;;3.63;;
26774;SDS011;14362;51.902;7.626;2023-04-24T10:50:43;5.47;;;3.95;;
26774;SDS011;14362;51.902;7.626;2023-04-24T10:54:46;3.93;;;3.07;;
26774;SDS011;14362;51.902;7.626;2023-04-24T10:58:49;7.32;;;3.80;;
26774;SDS011;14362;51.902;7.626;2023-04-24T11:02:52;4.25;;;2.92;;
26774;SDS011;14362;51.902;7.626;2023-04-24T11:06:56;5.28;;;3.28;;
26774;SDS011;14362;51.902;7.626;2023-04-24T11:11:02;6.80;;;3.33;;
26774;SDS011;14362;51.902;7.626;2023-04-24T11:15:10;9.88;;;4.25;;
26774;SDS011;14362;51.902;7.626;2023-04-24T11:19:18;6.97;;;4.53;;
26774;SDS011;14362;51.902;7.626;2023-04-24T11:23:23;6.28;;;4.55;;
26774;SDS011;14362;51.902;7.626;2023-04-24T11:27:24;6.47;;;4.80;;
26774;SDS011;14362;51.902;7.626;2023-04-24T11:31:34;7.07;;;5.00;;
26774;SDS011;14362;51.902;7.626;2023-04-24T11:35:39;7.55;;;4.75;;
26774;SDS011;14362;51.902;7.626;2023-04-24T11:39:42;8.37;;;5.30;;
26774;SDS011;14362;51.902;7.626;2023-04-24T11:43:43;8.90;;;5.57;;
26774;SDS011;14362;51.902;7.626;2023-04-24T11:47:47;7.15;;;4.32;;
26774;SDS011;14362;51.902;7.626;2023-04-24T11:51:48;9.68;;;4.68;;
26774;SDS011;14362;51.902;7.626;2023-04-24T11:55:51;7.68;;;5.38;;
26774;SDS011;14362;51.902;7.626;2023-04-24T11:59:52;9.50;;;5.10;;
26774;SDS011;14362;51.902;7.626;2023-04-24T12:03:59;8.38;;;5.18;;
26774;SDS011;14362;51.902;7.626;2023-04-24T12:08:01;11.75;;;5.45;;
26774;SDS011;14362;51.902;7.626;2023-04-24T12:12:03;11.82;;;5.07;;
26774;SDS011;14362;51.902;7.626;2023-04-24T12:16:07;12.10;;;5.68;;
26774;SDS011;14362;51.902;7.626;2023-04-24T12:20:09;10.30;;;6.47;;
26774;SDS011;14362;51.902;7.626;2023-04-24T12:24:12;11.23;;;5.25;;
26774;SDS011;14362;51.902;7.626;2023-04-24T12:28:15;14.80;;;5.68;;
26774;SDS011;14362;51.902;7.626;2023-04-24T12:32:16;10.48;;;5.38;;
26774;SDS011;14362;51.902;7.626;2023-04-24T12:36:17;17.27;;;6.25;;
26774;SDS011;14362;51.902;7.626;2023-04-24T12:40:22;8.57;;;5.43;;
26774;SDS011;14362;51.902;7.626;2023-04-24T12:44:31;10.98;;;4.90;;
26774;SDS011;14362;51.902;7.626;2023-04-24T12:48:34;11.13;;;5.25;;
26774;SDS011;14362;51.902;7.626;2023-04-24T12:52:35;11.18;;;5.72;;
26774;SDS011;14362;51.902;7.626;2023-04-24T12:56:37;9.88;;;5.20;;
26774;SDS011;14362;51.902;7.626;2023-04-24T13:00:40;8.90;;;4.65;;
26774;SDS011;14362;51.902;7.626;2023-04-24T13:04:43;12.57;;;4.93;;
26774;SDS011;14362;51.902;7.626;2023-04-24T13:08:45;17.63;;;5.32;;
26774;SDS011;14362;51.902;7.626;2023-04-24T13:12:47;13.15;;;5.47;;
26774;SDS011;14362;51.902;7.626;2023-04-24T13:16:50;15.57;;;5.75;;
26774;SDS011;14362;51.902;7.626;2023-04-24T13:20:52;13.63;;;5.70;;
26774;SDS011;14362;51.902;7.626;2023-04-24T13:24:53;9.98;;;5.13;;
26774;SDS011;14362;51.902;7.626;2023-04-24T13:28:56;13.35;;;5.20;;
26774;SDS011;14362;51.902;7.626;2023-04-24T13:32:58;8.20;;;5.07;;
26774;SDS011;14362;51.902;7.626;2023-04-24T13:37:00;9.82;;;5.85;;
26774;SDS011;14362;51.902;7.626;2023-04-24T13:41:02;23.85;;;4.32;;
26774;SDS011;14362;51.902;7.626;2023-04-24T13:45:04;7.95;;;3.92;;
26774;SDS011;14362;51.902;7.626;2023-04-24T13:49:07;9.10;;;3.40;;
26774;SDS011;14362;51.902;7.626;2023-04-24T13:53:08;9.57;;;3.15;;
26774;SDS011;14362;51.902;7.626;2023-04-24T13:57:10;6.63;;;2.33;;
26774;SDS011;14362;51.902;7.626;2023-04-24T14:01:11;4.47;;;2.40;;
26774;SDS011;14362;51.902;7.626;2023-04-24T14:05:14;5.22;;;2.33;;
26774;SDS011;14362;51.902;7.626;2023-04-24T14:09:16;5.18;;;2.53;;
26774;SDS011;14362;51.902;7.626;2023-04-24T14:13:17;3.10;;;2.25;;
26774;SDS011;14362;51.902;7.626;2023-04-24T14:17:18;3.78;;;2.38;;
26774;SDS011;14362;51.902;7.626;2023-04-24T14:21:21;3.85;;;2.03;;
26774;SDS011;14362;51.902;7.626;2023-04-24T14:25:23;4.32;;;2.25;;
26774;SDS011;14362;51.902;7.626;2023-04-24T14:29:24;3.47;;;1.90;;
26774;SDS011;14362;51.902;7.626;2023-04-24T14:33:25;6.30;;;2.58;;
26774;SDS011;14362;51.902;7.626;2023-04-24T14:37:28;4.75;;;2.13;;
26774;SDS011;14362;51.902;7.626;2023-04-24T14:41:30;3.55;;;2.05;;
26774;SDS011;14362;51.902;7.626;2023-04-24T14:45:31;4.18;;;1.70;;
26774;SDS011;14362;51.902;7.626;2023-04-24T14:49:32;7.05;;;2.00;;
26774;SDS011;14362;51.902;7.626;2023-04-24T14:53:35;3.80;;;2.72;;
26774;SDS011;14362;51.902;7.626;2023-04-24T14:57:37;5.15;;;2.28;;
26774;SDS011;14362;51.902;7.626;2023-04-24T15:01:38;3.55;;;2.30;;
26774;SDS011;14362;51.902;7.626;2023-04-24T15:05:39;5.18;;;2.70;;
26774;SDS011;14362;51.902;7.626;2023-04-24T15:09:42;2.30;;;1.83;;
26774;SDS011;14362;51.902;7.626;2023-04-24T15:13:44;3.22;;;2.20;;
26774;SDS011;14362;51.902;7.626;2023-04-24T15:17:46;2.58;;;2.03;;
26774;SDS011;14362;51.902;7.626;2023-04-24T15:21:47;3.63;;;1.95;;
26774;SDS011;14362;51.902;7.626;2023-04-24T15:25:50;5.13;;;2.05;;
26774;SDS011;14362;51.902;7.626;2023-04-24T15:29:51;2.88;;;1.77;;
26774;SDS011;14362;51.902;7.626;2023-04-24T15:33:53;5.25;;;1.85;;
26774;SDS011;14362;51.902;7.626;2023-04-24T15:37:55;5.88;;;2.08;;
26774;SDS011;14362;51.902;7.626;2023-04-24T15:41:58;4.28;;;1.85;;
26774;SDS011;14362;51.902;7.626;2023-04-24T15:46:00;5.25;;;1.65;;
26774;SDS011;14362;51.902;7.626;2023-04-24T15:50:01;6.53;;;2.08;;
26774;SDS011;14362;51.902;7.626;2023-04-24T15:54:03;9.30;;;2.30;;
26774;SDS011;14362;51.902;7.626;2023-04-24T15:58:06;3.78;;;1.77;;
26774;SDS011;14362;51.902;7.626;2023-04-24T16:02:08;5.03;;;2.05;;
26774;SDS011;14362;51.902;7.626;2023-04-24T16:06:10;5.40;;;1.98;;
26774;SDS011;14362;51.902;7.626;2023-04-24T16:10:13;9.18;;;2.10;;
26774;SDS011;14362;51.902;7.626;2023-04-24T16:14:15;7.22;;;2.15;;
26774;SDS011;14362;51.902;7.626;2023-04-24T16:18:17;5.43;;;2.13;;
26774;SDS011;14362;51.902;7.626;2023-04-24T16:22:18;3.70;;;2.33;;
26774;SDS011;14362;51.902;7.626;2023-04-24T16:26:21;5.43;;;1.92;;
26774;SDS011;14362;51.902;7.626;2023-04-24T16:30:23;4.53;;;1.90;;
26774;SDS011;14362;51.902;7.626;2023-04-24T16:34:25;5.15;;;1.92;;
26774;SDS011;14362;51.902;7.626;2023-04-24T16:38:26;5.93;;;1.88;;
26774;SDS011;14362;51.902;7.626;2023-04-24T16:42:27;6.55;;;3.60;;
26774;SDS011;14362;51.902;7.626;2023-04-24T16:46:30;4.63;;;2.20;;
26774;SDS011;14362;51.902;7.626;2023-04-24T16:50:32;6.88;;;2.35;;
26774;SDS011;14362;51.902;7.626;2023-04-24T16:54:33;6.03;;;2.10;;
26774;SDS011;14362;51.902;7.626;2023-04-24T16:58:35;5.82;;;1.83;;
26774;SDS011;14362;51.902;7.626;2023-04-24T17:02:38;4.05;;;2.20;;
26774;SDS011;14362;51.902;7.626;2023-04-24T17:06:39;5.82;;;2.20;;
26774;SDS011;14362;51.902;7.626;2023-04-24T17:10:41;9.25;;;2.55;;
26774;SDS011;14362;51.902;7.626;2023-04-24T17:14:42;5.80;;;1.85;;
26774;SDS011;14362;51.902;7.626;2023-04-24T17:18:45;6.38;;;2.75;;
26774;SDS011;14362;51.902;7.626;2023-04-24T17:22:46;6.32;;;2.13;;
26774;SDS011;14362;51.902;7.626;2023-04-24T17:26:48;3.88;;;2.08;;
26774;SDS011;14362;51.902;7.626;2023-04-24T17:30:49;7.03;;;3.35;;
26774;SDS011;14362;51.902;7.626;2023-04-24T17:34:52;10.48;;;2.83;;
26774;SDS011;14362;51.902;7.626;2023-04-24T17:38:53;8.70;;;2.88;;
26774;SDS011;14362;51.902;7.626;2023-04-24T17:42:55;7.40;;;2.85;;
26774;SDS011;14362;51.902;7.626;2023-04-24T17:46:56;7.55;;;2.88;;
26774;SDS011;14362;51.902;7.626;2023-04-24T17:50:59;7.85;;;2.65;;
26774;SDS011;14362;51.902;7.626;2023-04-24T17:55:00;9.48;;;2.72;;
26774;SDS011;14362;51.902;7.626;2023-04-24T17:59:02;9.00;;;3.33;;
26774;SDS011;14362;51.902;7.626;2023-04-24T18:03:03;10.32;;;3.38;;
26774;SDS011;14362;51.902;7.626;2023-04-24T18:07:07;6.72;;;3.42;;
26774;SDS011;14362;51.902;7.626;2023-04-24T18:11:09;6.65;;;3.00;;
26774;SDS011;14362;51.902;7.626;2023-04-24T18:15:10;13.18;;;3.17;;
26774;SDS011;14362;51.902;7.626;2023-04-24T18:19:12;13.07;;;3.30;;
26774;SDS011;14362;51.902;7.626;2023-04-24T18:23:14;7.72;;;3.40;;
26774;SDS011;14362;51.902;7.626;2023-04-24T18:27:16;11.23;;;2.85;;
26774;SDS011;14362;51.902;7.626;2023-04-24T18:31:18;10.10;;;2.90;;
26774;SDS011;14362;51.902;7.626;2023-04-24T18:35:20;11.07;;;4.40;;
26774;SDS011;14362;51.902;7.626;2023-04-24T18:39:23;11.60;;;3.60;;
26774;SDS011;14362;51.902;7.626;2023-04-24T18:43:25;8.70;;;3.50;;
26774;SDS011;14362;51.902;7.626;2023-04-24T18:47:29;8.35;;;3.28;;
26774;SDS011;14362;51.902;7.626;2023-04-24T18:51:30;8.60;;;3.55;;
26774;SDS011;14362;51.902;7.626;2023-04-24T18:55:33;12.30;;;3.42;;
26774;SDS011;14362;51.902;7.626;2023-04-24T18:59:35;11.55;;;3.63;;
26774;SDS011;14362;51.902;7.626;2023-04-24T19:03:36;8.70;;;3.80;;
26774;SDS011;14362;51.902;7.626;2023-04-24T19:07:38;10.35;;;3.72;;
26774;SDS011;14362;51.902;7.626;2023-04-24T19:11:42;8.52;;;3.60;;
26774;SDS011;14362;51.902;7.626;2023-04-24T19:15:43;9.45;;;3.75;;
26774;SDS011;14362;51.902;7.626;2023-04-24T19:19:45;10.40;;;4.13;;
26774;SDS011;14362;51.902;7.626;2023-04-24T19:23:46;10.02;;;3.75;;
26774;SDS011;14362;51.902;7.626;2023-04-24T19:27:50;13.02;;;3.92;;
26774;SDS011;14362;51.902;7.626;2023-04-24T19:31:52;12.98;;;4.05;;
26774;SDS011;14362;51.902;7.626;2023-04-24T19:35:54;9.77;;;3.38;;
26774;SDS011;14362;51.902;7.626;2023-04-24T19:39:56;11.13;;;3.78;;
26774;SDS011;14362;51.902;7.626;2023-04-24T19:43:58;10.02;;;4.22;;
26774;SDS011;14362;51.902;7.626;2023-04-24T19:48:00;10.38;;;3.92;;
26774;SDS011;14362;51.902;7.626;2023-04-24T19:52:01;8.70;;;4.28;;
26774;SDS011;14362;51.902;7.626;2023-04-24T19:56:03;6.38;;;3.60;;
26774;SDS011;14362;51.902;7.626;2023-04-24T20:00:07;10.40;;;4.47;;
26774;SDS011;14362;51.902;7.626;2023-04-24T20:08:11;11.98;;;3.92;;
26774;SDS011;14362;51.902;7.626;2023-04-24T20:12:12;11.13;;;3.85;;
26774;SDS011;14362;51.902;7.626;2023-04-24T20:16:16;9.45;;;4.38;;
26774;SDS011;14362;51.902;7.626;2023-04-24T20:20:17;10.20;;;4.07;;
26774;SDS011;14362;51.902;7.626;2023-04-24T20:24:19;9.73;;;4.35;;
26774;SDS011;14362;51.902;7.626;2023-04-24T20:28:20;8.77;;;4.32;;
26774;SDS011;14362;51.902;7.626;2023-04-24T20:32:23;13.45;;;4.35;;
26774;SDS011;14362;51.902;7.626;2023-04-24T20:36:24;13.48;;;4.38;;
26774;SDS011;14362;51.902;7.626;2023-04-24T20:40:26;17.02;;;4.38;;
26774;SDS011;14362;51.902;7.626;2023-04-24T20:44:28;15.35;;;4.63;;
26774;SDS011;14362;51.902;7.626;2023-04-24T20:48:31;10.48;;;4.03;;
26774;SDS011;14362;51.902;7.626;2023-04-24T20:52:32;12.02;;;4.90;;
26774;SDS011;14362;51.902;7.626;2023-04-24T20:56:34;11.32;;;4.93;;
26774;SDS011;14362;51.902;7.626;2023-04-24T21:00:35;13.48;;;4.80;;
26774;SDS011;14362;51.902;7.626;2023-04-24T21:04:38;14.25;;;4.93;;
26774;SDS011;14362;51.902;7.626;2023-04-24T21:08:39;13.15;;;4.95;;
26774;SDS011;14362;51.902;7.626;2023-04-24T21:12:41;10.98;;;4.35;;
26774;SDS011;14362;51.902;7.626;2023-04-24T21:16:42;17.33;;;4.95;;
26774;SDS011;14362;51.902;7.626;2023-04-24T21:20:45;9.85;;;4.72;;
26774;SDS011;14362;51.902;7.626;2023-04-24T21:24:47;12.45;;;4.68;;
26774;SDS011;14362;51.902;7.626;2023-04-24T21:28:48;11.77;;;4.95;;
26774;SDS011;14362;51.902;7.626;2023-04-24T21:32:50;9.50;;;4.82;;
26774;SDS011;14362;51.902;7.626;2023-04-24T21:36:53;18.08;;;4.45;;
26774;SDS011;14362;51.902;7.626;2023-04-24T21:40:55;16.20;;;5.28;;
26774;SDS011;14362;51.902;7.626;2023-04-24T21:44:56;11.23;;;4.75;;
26774;SDS011;14362;51.902;7.626;2023-04-24T21:48:58;14.00;;;5.35;;
26774;SDS011;14362;51.902;7.626;2023-04-24T21:53:00;12.50;;;4.63;;
26774;SDS011;14362;51.902;7.626;2023-04-24T21:57:02;10.13;;;4.80;;
26774;SDS011;14362;51.902;7.626;2023-04-24T22:01:04;12.88;;;4.97;;
26774;SDS011;14362;51.902;7.626;2023-04-24T22:05:05;15.45;;;4.78;;
26774;SDS011;14362;51.902;7.626;2023-04-24T22:09:10;14.38;;;4.82;;
26774;SDS011;14362;51.902;7.626;2023-04-24T22:13:12;11.50;;;4.68;;
26774;SDS011;14362;51.902;7.626;2023-04-24T22:17:13;13.38;;;5.82;;
26774;SDS011;14362;51.902;7.626;2023-04-24T22:21:16;15.50;;;5.38;;
26774;SDS011;14362;51.902;7.626;2023-04-24T22:25:19;18.10;;;5.10;;
26774;SDS011;14362;51.902;7.626;2023-04-24T22:29:20;23.17;;;6.53;;
26774;SDS011;14362;51.902;7.626;2023-04-24T22:33:21;10.98;;;5.60;;
26774;SDS011;14362;51.902;7.626;2023-04-24T22:37:23;14.95;;;5.25;;
26774;SDS011;14362;51.902;7.626;2023-04-24T22:41:26;16.02;;;5.13;;
26774;SDS011;14362;51.902;7.626;2023-04-24T22:45:28;10.35;;;4.57;;
26774;SDS011;14362;51.902;7.626;2023-04-24T22:49:29;10.32;;;5.10;;
26774;SDS011;14362;51.902;7.626;2023-04-24T22:53:33;16.00;;;4.93;;
26774;SDS011;14362;51.902;7.626;2023-04-24T22:57:37;12.43;;;4.93;;
26774;SDS011;14362;51.902;7.626;2023-04-24T23:01:39;17.60;;;5.30;;
26774;SDS011;14362;51.902;7.626;2023-04-24T23:05:40;13.02;;;4.53;;
26774;SDS011;14362;51.902;7.626;2023-04-24T23:09:41;14.48;;;4.80;;
26774;SDS011;14362;51.902;7.626;2023-04-24T23:13:44;11.73;;;4.53;;
26774;SDS011;14362;51.902;7.626;2023-04-24T23:17:46;15.93;;;5.82;;
26774;SDS011;14362;51.902;7.626;2023-04-24T23:21:48;12.88;;;5.30;;
26774;SDS011;14362;51.902;7.626;2023-04-24T23:25:49;16.40;;;4.20;;
26774;SDS011;14362;51.902;7.626;2023-04-24T23:29:52;15.73;;;5.55;;
26774;SDS011;14362;51.902;7.626;2023-04-24T23:33:54;12.75;;;4.95;;
26774;SDS011;14362;51.902;7.626;2023-04-24T23:37:55;13.43;;;5.57;;
26774;SDS011;14362;51.902;7.626;2023-04-24T23:41:56;14.70;;;5.30;;
26774;SDS011;14362;51.902;7.626;2023-04-24T23:46:00;19.80;;;5.75;;
26774;SDS011;14362;51.902;7.626;2023-04-24T23:50:02;17.65;;;5.60;;
26774;SDS011;14362;51.902;7.626;2023-04-24T23:54:03;12.57;;;5.18;;
26774;SDS011;14362;51.902;7.626;2023-04-24T23:58:05;18.45;;;5.13;;
